Main page
METAR-TAF:

METAR-TAF

Airports :

Lyon–Bron Airport

Lyon, France

latitude: 45-43N, longitude: 004-57E, elevation: 200 m

Current weather observation

The report was made 15 minutes ago, at 10:30 UTC
Wind 6 kt from the North, varying between Northwest and East
Temperature 22°C
Humidity 50%
Pressure 1020 hPa
Visibility 10 km or more
no clouds below 1500 m and no cumulonimbus

METAR: LFLY 241030Z AUTO 01006KT 310V090 CAVOK 22/11 Q1020 NOSIG

Time: 12:45 (10:45 UTC)

Forecast

The report was made 5 hours and 45 minutes ago, at 05:00 UTC
Forecast valid from 24 at 06 UTC to 25 at 06 UTC
Wind 8 kt from the North
Visibility 10 km or more
no clouds below 1500 m and no cumulonimbus

TAF: LFLY 240500Z 2406/2506 35008KT CAVOK

Weather observations and forecasts of more than 4000 airports (METAR and TAF reports).

The available stations are represented by yellow and red dots on the map.

Hover mouse over dot to see the name of the station.

Then click to see weather observations and forecasts.

To change the map : click on the green buttons with a black cross to zoom in, on the green button with a dash to zoom out, or on the green arrows for adjacent maps.


METAR-TAF: